METAR Data
IDs: Format: Raw Decoded Include TAF

Data at: 1059 UTC 28 Sep 2021

PTPN 280654Z 00000KT 15SM SCT018TCU BKN130 OVC300 28/25 A2975 RMK TCU W LAST